sensor_id;sensor_type;location;lat;lon;timestamp;P1;durP1;ratioP1;P2;durP2;ratioP2
49614;SDS011;35517;45.272;9.984;2023-05-07T00:00:55;29.65;;;24.65;;
49614;SDS011;35517;45.272;9.984;2023-05-07T00:03:21;27.38;;;24.48;;
49614;SDS011;35517;45.272;9.984;2023-05-07T00:05:48;28.70;;;25.65;;
49614;SDS011;35517;45.272;9.984;2023-05-07T00:08:15;29.67;;;24.50;;
49614;SDS011;35517;45.272;9.984;2023-05-07T00:10:41;29.88;;;25.52;;
49614;SDS011;35517;45.272;9.984;2023-05-07T00:13:08;28.98;;;26.08;;
49614;SDS011;35517;45.272;9.984;2023-05-07T00:15:34;28.77;;;24.83;;
49614;SDS011;35517;45.272;9.984;2023-05-07T00:18:01;27.08;;;24.17;;
49614;SDS011;35517;45.272;9.984;2023-05-07T00:20:27;29.65;;;25.65;;
49614;SDS011;35517;45.272;9.984;2023-05-07T00:22:54;26.70;;;22.50;;
49614;SDS011;35517;45.272;9.984;2023-05-07T00:25:20;29.85;;;24.60;;
49614;SDS011;35517;45.272;9.984;2023-05-07T00:27:47;25.75;;;22.95;;
49614;SDS011;35517;45.272;9.984;2023-05-07T00:30:13;27.05;;;23.50;;
49614;SDS011;35517;45.272;9.984;2023-05-07T00:32:40;24.52;;;21.95;;
49614;SDS011;35517;45.272;9.984;2023-05-07T00:35:07;25.85;;;23.02;;
49614;SDS011;35517;45.272;9.984;2023-05-07T00:37:33;26.67;;;22.67;;
49614;SDS011;35517;45.272;9.984;2023-05-07T00:40:00;27.65;;;23.60;;
49614;SDS011;35517;45.272;9.984;2023-05-07T00:42:30;25.08;;;22.15;;
49614;SDS011;35517;45.272;9.984;2023-05-07T00:44:58;27.38;;;24.10;;
49614;SDS011;35517;45.272;9.984;2023-05-07T00:47:25;27.08;;;23.17;;
49614;SDS011;35517;45.272;9.984;2023-05-07T00:49:51;27.00;;;23.65;;
49614;SDS011;35517;45.272;9.984;2023-05-07T00:52:18;27.48;;;24.35;;
49614;SDS011;35517;45.272;9.984;2023-05-07T00:54:46;29.77;;;25.88;;
49614;SDS011;35517;45.272;9.984;2023-05-07T00:57:12;30.05;;;26.40;;
49614;SDS011;35517;45.272;9.984;2023-05-07T00:59:39;29.23;;;26.08;;
49614;SDS011;35517;45.272;9.984;2023-05-07T01:02:06;30.02;;;26.88;;
49614;SDS011;35517;45.272;9.984;2023-05-07T01:04:33;30.63;;;26.63;;
49614;SDS011;35517;45.272;9.984;2023-05-07T01:06:59;31.65;;;27.08;;
49614;SDS011;35517;45.272;9.984;2023-05-07T01:09:27;40.58;;;26.45;;
49614;SDS011;35517;45.272;9.984;2023-05-07T01:11:54;31.65;;;26.08;;
49614;SDS011;35517;45.272;9.984;2023-05-07T01:14:22;30.63;;;27.33;;
49614;SDS011;35517;45.272;9.984;2023-05-07T01:16:49;33.05;;;26.45;;
49614;SDS011;35517;45.272;9.984;2023-05-07T01:19:18;32.70;;;27.30;;
49614;SDS011;35517;45.272;9.984;2023-05-07T01:21:47;30.83;;;27.38;;
49614;SDS011;35517;45.272;9.984;2023-05-07T01:24:15;33.20;;;29.33;;
49614;SDS011;35517;45.272;9.984;2023-05-07T01:26:43;32.30;;;28.90;;
49614;SDS011;35517;45.272;9.984;2023-05-07T01:29:11;34.63;;;30.92;;
49614;SDS011;35517;45.272;9.984;2023-05-07T01:31:37;31.80;;;27.85;;
49614;SDS011;35517;45.272;9.984;2023-05-07T01:34:05;34.15;;;28.48;;
49614;SDS011;35517;45.272;9.984;2023-05-07T01:36:33;33.10;;;29.60;;
49614;SDS011;35517;45.272;9.984;2023-05-07T01:39:00;36.08;;;30.10;;
49614;SDS011;35517;45.272;9.984;2023-05-07T01:41:27;39.20;;;29.27;;
49614;SDS011;35517;45.272;9.984;2023-05-07T01:43:54;34.22;;;30.42;;
49614;SDS011;35517;45.272;9.984;2023-05-07T01:46:21;35.92;;;29.27;;
49614;SDS011;35517;45.272;9.984;2023-05-07T01:48:47;32.58;;;29.15;;
49614;SDS011;35517;45.272;9.984;2023-05-07T01:51:14;33.22;;;28.50;;
49614;SDS011;35517;45.272;9.984;2023-05-07T01:53:41;37.03;;;28.60;;
49614;SDS011;35517;45.272;9.984;2023-05-07T01:56:09;30.73;;;27.55;;
49614;SDS011;35517;45.272;9.984;2023-05-07T01:58:38;32.85;;;29.30;;
49614;SDS011;35517;45.272;9.984;2023-05-07T02:01:05;28.40;;;25.38;;
49614;SDS011;35517;45.272;9.984;2023-05-07T02:03:31;31.75;;;28.08;;
49614;SDS011;35517;45.272;9.984;2023-05-07T02:06:06;33.47;;;27.75;;
49614;SDS011;35517;45.272;9.984;2023-05-07T02:08:36;30.27;;;25.33;;
49614;SDS011;35517;45.272;9.984;2023-05-07T02:11:03;30.77;;;26.27;;
49614;SDS011;35517;45.272;9.984;2023-05-07T02:13:32;31.48;;;25.60;;
49614;SDS011;35517;45.272;9.984;2023-05-07T02:16:00;29.88;;;26.77;;
49614;SDS011;35517;45.272;9.984;2023-05-07T02:18:27;28.77;;;24.85;;
49614;SDS011;35517;45.272;9.984;2023-05-07T02:20:54;33.72;;;26.05;;
49614;SDS011;35517;45.272;9.984;2023-05-07T02:23:20;32.80;;;25.95;;
49614;SDS011;35517;45.272;9.984;2023-05-07T02:25:47;33.25;;;24.50;;
49614;SDS011;35517;45.272;9.984;2023-05-07T02:28:13;28.90;;;25.65;;
49614;SDS011;35517;45.272;9.984;2023-05-07T02:31:04;28.17;;;24.95;;
49614;SDS011;35517;45.272;9.984;2023-05-07T02:33:31;32.65;;;24.85;;
49614;SDS011;35517;45.272;9.984;2023-05-07T02:36:08;34.47;;;24.90;;
49614;SDS011;35517;45.272;9.984;2023-05-07T02:38:40;28.77;;;24.00;;
49614;SDS011;35517;45.272;9.984;2023-05-07T02:41:06;27.80;;;24.05;;
49614;SDS011;35517;45.272;9.984;2023-05-07T02:43:33;28.45;;;23.52;;
49614;SDS011;35517;45.272;9.984;2023-05-07T02:46:00;27.67;;;24.73;;
49614;SDS011;35517;45.272;9.984;2023-05-07T02:48:27;26.95;;;24.15;;
49614;SDS011;35517;45.272;9.984;2023-05-07T02:50:54;27.95;;;24.58;;
49614;SDS011;35517;45.272;9.984;2023-05-07T02:53:20;32.47;;;26.33;;
49614;SDS011;35517;45.272;9.984;2023-05-07T02:55:47;30.60;;;25.70;;
49614;SDS011;35517;45.272;9.984;2023-05-07T02:58:13;34.33;;;25.23;;
49614;SDS011;35517;45.272;9.984;2023-05-07T03:00:41;30.30;;;25.10;;
49614;SDS011;35517;45.272;9.984;2023-05-07T03:03:25;27.92;;;25.10;;
49614;SDS011;35517;45.272;9.984;2023-05-07T03:05:52;31.35;;;24.20;;
49614;SDS011;35517;45.272;9.984;2023-05-07T03:08:19;26.60;;;23.75;;
49614;SDS011;35517;45.272;9.984;2023-05-07T03:10:45;29.90;;;24.83;;
49614;SDS011;35517;45.272;9.984;2023-05-07T03:13:12;29.88;;;23.88;;
49614;SDS011;35517;45.272;9.984;2023-05-07T03:15:39;31.38;;;22.02;;
49614;SDS011;35517;45.272;9.984;2023-05-07T03:18:05;19.20;;;16.85;;
49614;SDS011;35517;45.272;9.984;2023-05-07T03:20:32;20.48;;;13.88;;
49614;SDS011;35517;45.272;9.984;2023-05-07T03:22:58;24.50;;;21.35;;
49614;SDS011;35517;45.272;9.984;2023-05-07T03:25:25;24.08;;;21.48;;
49614;SDS011;35517;45.272;9.984;2023-05-07T03:27:52;20.52;;;18.30;;
49614;SDS011;35517;45.272;9.984;2023-05-07T03:30:22;21.63;;;19.33;;
49614;SDS011;35517;45.272;9.984;2023-05-07T03:32:48;21.13;;;18.10;;
49614;SDS011;35517;45.272;9.984;2023-05-07T03:35:15;20.00;;;17.63;;
49614;SDS011;35517;45.272;9.984;2023-05-07T03:37:42;14.95;;;12.40;;
49614;SDS011;35517;45.272;9.984;2023-05-07T03:40:10;8.65;;;7.13;;
49614;SDS011;35517;45.272;9.984;2023-05-07T03:42:43;7.28;;;5.07;;
49614;SDS011;35517;45.272;9.984;2023-05-07T03:45:11;5.68;;;4.03;;
49614;SDS011;35517;45.272;9.984;2023-05-07T03:47:42;9.98;;;4.22;;
49614;SDS011;35517;45.272;9.984;2023-05-07T03:50:12;4.05;;;2.90;;
49614;SDS011;35517;45.272;9.984;2023-05-07T03:52:38;12.73;;;3.83;;
49614;SDS011;35517;45.272;9.984;2023-05-07T03:55:08;4.95;;;3.05;;
49614;SDS011;35517;45.272;9.984;2023-05-07T03:57:37;4.82;;;2.97;;
49614;SDS011;35517;45.272;9.984;2023-05-07T04:00:04;3.97;;;2.58;;
49614;SDS011;35517;45.272;9.984;2023-05-07T04:02:46;5.47;;;2.85;;
49614;SDS011;35517;45.272;9.984;2023-05-07T04:05:14;5.75;;;3.72;;
49614;SDS011;35517;45.272;9.984;2023-05-07T04:07:44;4.25;;;2.45;;
49614;SDS011;35517;45.272;9.984;2023-05-07T04:10:12;5.38;;;2.40;;
49614;SDS011;35517;45.272;9.984;2023-05-07T04:12:42;6.97;;;2.40;;
49614;SDS011;35517;45.272;9.984;2023-05-07T04:15:13;3.88;;;1.75;;
49614;SDS011;35517;45.272;9.984;2023-05-07T04:17:40;2.17;;;1.55;;
49614;SDS011;35517;45.272;9.984;2023-05-07T04:20:14;3.15;;;2.50;;
49614;SDS011;35517;45.272;9.984;2023-05-07T04:22:41;4.22;;;1.92;;
49614;SDS011;35517;45.272;9.984;2023-05-07T04:25:08;1.60;;;1.40;;
49614;SDS011;35517;45.272;9.984;2023-05-07T04:27:36;1.25;;;1.15;;
49614;SDS011;35517;45.272;9.984;2023-05-07T04:30:03;3.30;;;1.70;;
49614;SDS011;35517;45.272;9.984;2023-05-07T04:32:34;1.52;;;1.40;;
49614;SDS011;35517;45.272;9.984;2023-05-07T04:35:03;2.63;;;1.60;;
49614;SDS011;35517;45.272;9.984;2023-05-07T04:37:31;1.60;;;1.50;;
49614;SDS011;35517;45.272;9.984;2023-05-07T04:39:59;1.50;;;1.40;;
49614;SDS011;35517;45.272;9.984;2023-05-07T04:42:26;2.88;;;1.77;;
49614;SDS011;35517;45.272;9.984;2023-05-07T04:44:54;4.82;;;1.55;;
49614;SDS011;35517;45.272;9.984;2023-05-07T04:47:22;3.53;;;1.88;;
49614;SDS011;35517;45.272;9.984;2023-05-07T04:49:50;4.75;;;2.55;;
49614;SDS011;35517;45.272;9.984;2023-05-07T04:52:16;10.10;;;2.15;;
49614;SDS011;35517;45.272;9.984;2023-05-07T04:54:43;3.78;;;2.22;;
49614;SDS011;35517;45.272;9.984;2023-05-07T04:57:10;4.63;;;1.70;;
49614;SDS011;35517;45.272;9.984;2023-05-07T04:59:37;3.75;;;2.00;;
49614;SDS011;35517;45.272;9.984;2023-05-07T05:02:03;3.28;;;1.60;;
49614;SDS011;35517;45.272;9.984;2023-05-07T05:04:30;5.22;;;1.58;;
49614;SDS011;35517;45.272;9.984;2023-05-07T05:06:57;3.08;;;1.65;;
49614;SDS011;35517;45.272;9.984;2023-05-07T05:09:24;2.72;;;1.50;;
49614;SDS011;35517;45.272;9.984;2023-05-07T05:11:50;2.63;;;1.60;;
49614;SDS011;35517;45.272;9.984;2023-05-07T05:14:17;2.13;;;1.20;;
49614;SDS011;35517;45.272;9.984;2023-05-07T05:16:43;2.05;;;1.30;;
49614;SDS011;35517;45.272;9.984;2023-05-07T05:19:10;3.92;;;0.95;;
49614;SDS011;35517;45.272;9.984;2023-05-07T05:21:38;2.53;;;1.10;;
49614;SDS011;35517;45.272;9.984;2023-05-07T05:24:08;3.60;;;1.35;;
49614;SDS011;35517;45.272;9.984;2023-05-07T05:26:34;4.55;;;1.33;;
49614;SDS011;35517;45.272;9.984;2023-05-07T05:29:02;3.22;;;1.23;;
49614;SDS011;35517;45.272;9.984;2023-05-07T05:31:30;5.38;;;0.98;;
49614;SDS011;35517;45.272;9.984;2023-05-07T05:33:57;1.92;;;1.17;;
49614;SDS011;35517;45.272;9.984;2023-05-07T05:36:24;1.85;;;1.10;;
49614;SDS011;35517;45.272;9.984;2023-05-07T05:38:55;6.40;;;1.48;;
49614;SDS011;35517;45.272;9.984;2023-05-07T05:41:22;5.93;;;1.40;;
49614;SDS011;35517;45.272;9.984;2023-05-07T05:43:49;4.38;;;1.35;;
49614;SDS011;35517;45.272;9.984;2023-05-07T05:46:16;0.88;;;0.85;;
49614;SDS011;35517;45.272;9.984;2023-05-07T05:48:42;2.10;;;0.88;;
49614;SDS011;35517;45.272;9.984;2023-05-07T05:51:10;3.80;;;1.08;;
49614;SDS011;35517;45.272;9.984;2023-05-07T05:53:37;1.98;;;1.25;;
49614;SDS011;35517;45.272;9.984;2023-05-07T05:56:05;3.03;;;0.95;;
49614;SDS011;35517;45.272;9.984;2023-05-07T05:58:33;11.13;;;1.13;;
49614;SDS011;35517;45.272;9.984;2023-05-07T06:01:05;1.25;;;0.60;;
49614;SDS011;35517;45.272;9.984;2023-05-07T06:03:32;3.28;;;1.00;;
49614;SDS011;35517;45.272;9.984;2023-05-07T06:06:03;2.35;;;0.70;;
49614;SDS011;35517;45.272;9.984;2023-05-07T06:08:30;6.15;;;0.98;;
49614;SDS011;35517;45.272;9.984;2023-05-07T06:10:57;3.88;;;0.80;;
49614;SDS011;35517;45.272;9.984;2023-05-07T06:13:26;1.25;;;0.70;;
49614;SDS011;35517;45.272;9.984;2023-05-07T06:15:53;3.47;;;1.08;;
49614;SDS011;35517;45.272;9.984;2023-05-07T06:18:19;3.00;;;1.20;;
49614;SDS011;35517;45.272;9.984;2023-05-07T06:20:46;2.17;;;1.17;;
49614;SDS011;35517;45.272;9.984;2023-05-07T06:23:21;5.57;;;0.85;;
49614;SDS011;35517;45.272;9.984;2023-05-07T06:25:49;2.03;;;1.00;;
49614;SDS011;35517;45.272;9.984;2023-05-07T06:28:17;1.27;;;0.90;;
49614;SDS011;35517;45.272;9.984;2023-05-07T06:30:44;1.30;;;1.00;;
49614;SDS011;35517;45.272;9.984;2023-05-07T06:33:11;3.13;;;1.00;;
49614;SDS011;35517;45.272;9.984;2023-05-07T06:35:38;3.35;;;0.70;;
49614;SDS011;35517;45.272;9.984;2023-05-07T06:38:05;1.83;;;1.00;;
49614;SDS011;35517;45.272;9.984;2023-05-07T06:40:32;3.17;;;1.38;;
49614;SDS011;35517;45.272;9.984;2023-05-07T06:42:59;4.03;;;1.00;;
49614;SDS011;35517;45.272;9.984;2023-05-07T06:45:40;4.00;;;0.88;;
49614;SDS011;35517;45.272;9.984;2023-05-07T06:48:08;0.90;;;0.77;;
49614;SDS011;35517;45.272;9.984;2023-05-07T06:50:44;3.65;;;1.38;;
49614;SDS011;35517;45.272;9.984;2023-05-07T06:53:12;4.38;;;0.93;;
49614;SDS011;35517;45.272;9.984;2023-05-07T06:55:39;9.70;;;0.93;;
49614;SDS011;35517;45.272;9.984;2023-05-07T06:58:07;5.13;;;0.80;;
49614;SDS011;35517;45.272;9.984;2023-05-07T07:00:34;1.65;;;0.52;;
49614;SDS011;35517;45.272;9.984;2023-05-07T07:03:09;3.13;;;0.80;;
49614;SDS011;35517;45.272;9.984;2023-05-07T07:05:35;1.88;;;0.80;;
49614;SDS011;35517;45.272;9.984;2023-05-07T07:08:03;3.38;;;0.95;;
49614;SDS011;35517;45.272;9.984;2023-05-07T07:10:29;2.85;;;0.75;;
49614;SDS011;35517;45.272;9.984;2023-05-07T07:12:56;12.57;;;0.98;;
49614;SDS011;35517;45.272;9.984;2023-05-07T07:15:22;3.33;;;0.57;;
49614;SDS011;35517;45.272;9.984;2023-05-07T07:17:50;3.63;;;1.10;;
49614;SDS011;35517;45.272;9.984;2023-05-07T07:20:17;2.35;;;0.90;;
49614;SDS011;35517;45.272;9.984;2023-05-07T07:22:44;5.55;;;0.85;;
49614;SDS011;35517;45.272;9.984;2023-05-07T07:25:11;1.50;;;0.65;;
49614;SDS011;35517;45.272;9.984;2023-05-07T07:27:38;2.72;;;0.77;;
49614;SDS011;35517;45.272;9.984;2023-05-07T07:30:06;1.73;;;0.80;;
49614;SDS011;35517;45.272;9.984;2023-05-07T07:32:36;5.38;;;1.17;;
49614;SDS011;35517;45.272;9.984;2023-05-07T07:35:02;3.90;;;0.90;;
49614;SDS011;35517;45.272;9.984;2023-05-07T07:37:30;4.00;;;0.98;;
49614;SDS011;35517;45.272;9.984;2023-05-07T07:39:56;2.63;;;0.75;;
49614;SDS011;35517;45.272;9.984;2023-05-07T07:42:23;1.45;;;0.77;;
49614;SDS011;35517;45.272;9.984;2023-05-07T07:44:50;5.40;;;1.95;;
49614;SDS011;35517;45.272;9.984;2023-05-07T07:47:20;2.58;;;1.08;;
49614;SDS011;35517;45.272;9.984;2023-05-07T07:49:48;3.70;;;1.45;;
49614;SDS011;35517;45.272;9.984;2023-05-07T07:52:14;5.05;;;1.00;;
49614;SDS011;35517;45.272;9.984;2023-05-07T07:54:43;11.40;;;1.77;;
49614;SDS011;35517;45.272;9.984;2023-05-07T07:57:09;2.50;;;0.90;;
49614;SDS011;35517;45.272;9.984;2023-05-07T07:59:36;1.92;;;1.40;;
49614;SDS011;35517;45.272;9.984;2023-05-07T08:02:04;5.65;;;1.20;;
49614;SDS011;35517;45.272;9.984;2023-05-07T08:04:30;2.65;;;1.30;;
49614;SDS011;35517;45.272;9.984;2023-05-07T08:07:01;3.50;;;1.10;;
49614;SDS011;35517;45.272;9.984;2023-05-07T08:09:31;2.88;;;1.40;;
49614;SDS011;35517;45.272;9.984;2023-05-07T08:11:59;4.88;;;1.30;;
49614;SDS011;35517;45.272;9.984;2023-05-07T08:14:27;3.05;;;1.10;;
49614;SDS011;35517;45.272;9.984;2023-05-07T08:16:54;1.42;;;0.95;;
49614;SDS011;35517;45.272;9.984;2023-05-07T08:19:21;4.20;;;1.40;;
49614;SDS011;35517;45.272;9.984;2023-05-07T08:21:48;4.30;;;1.35;;
49614;SDS011;35517;45.272;9.984;2023-05-07T08:24:17;3.28;;;1.08;;
49614;SDS011;35517;45.272;9.984;2023-05-07T08:26:46;2.47;;;1.10;;
49614;SDS011;35517;45.272;9.984;2023-05-07T08:29:12;2.28;;;1.10;;
49614;SDS011;35517;45.272;9.984;2023-05-07T08:31:39;2.20;;;1.00;;
49614;SDS011;35517;45.272;9.984;2023-05-07T08:34:05;4.70;;;1.05;;
49614;SDS011;35517;45.272;9.984;2023-05-07T08:36:34;1.65;;;1.10;;
49614;SDS011;35517;45.272;9.984;2023-05-07T08:39:00;2.60;;;1.20;;
49614;SDS011;35517;45.272;9.984;2023-05-07T08:41:27;5.03;;;1.40;;
49614;SDS011;35517;45.272;9.984;2023-05-07T08:43:56;2.47;;;1.08;;
49614;SDS011;35517;45.272;9.984;2023-05-07T08:46:25;3.38;;;1.27;;
49614;SDS011;35517;45.272;9.984;2023-05-07T08:48:54;4.70;;;1.10;;
49614;SDS011;35517;45.272;9.984;2023-05-07T08:51:21;2.83;;;1.00;;
49614;SDS011;35517;45.272;9.984;2023-05-07T08:53:49;3.35;;;1.20;;
49614;SDS011;35517;45.272;9.984;2023-05-07T08:56:21;1.38;;;0.90;;
49614;SDS011;35517;45.272;9.984;2023-05-07T08:58:50;2.65;;;1.23;;
49614;SDS011;35517;45.272;9.984;2023-05-07T09:01:16;5.50;;;1.67;;
49614;SDS011;35517;45.272;9.984;2023-05-07T09:03:46;2.92;;;1.75;;
49614;SDS011;35517;45.272;9.984;2023-05-07T09:06:14;2.85;;;1.17;;
49614;SDS011;35517;45.272;9.984;2023-05-07T09:08:44;5.28;;;1.92;;
49614;SDS011;35517;45.272;9.984;2023-05-07T09:11:16;2.75;;;1.23;;
49614;SDS011;35517;45.272;9.984;2023-05-07T09:13:43;2.80;;;1.40;;
49614;SDS011;35517;45.272;9.984;2023-05-07T09:16:10;2.15;;;1.13;;
49614;SDS011;35517;45.272;9.984;2023-05-07T09:18:41;1.85;;;1.00;;
49614;SDS011;35517;45.272;9.984;2023-05-07T09:21:10;2.10;;;1.20;;
49614;SDS011;35517;45.272;9.984;2023-05-07T09:23:37;3.50;;;2.13;;
49614;SDS011;35517;45.272;9.984;2023-05-07T09:26:04;2.42;;;1.60;;
49614;SDS011;35517;45.272;9.984;2023-05-07T09:28:34;3.20;;;1.13;;
49614;SDS011;35517;45.272;9.984;2023-05-07T09:31:00;4.15;;;1.40;;
49614;SDS011;35517;45.272;9.984;2023-05-07T09:33:27;2.95;;;0.98;;
49614;SDS011;35517;45.272;9.984;2023-05-07T09:35:56;3.65;;;1.30;;
49614;SDS011;35517;45.272;9.984;2023-05-07T09:38:23;5.63;;;1.40;;
49614;SDS011;35517;45.272;9.984;2023-05-07T09:41:04;3.65;;;1.00;;
49614;SDS011;35517;45.272;9.984;2023-05-07T09:43:35;3.85;;;1.75;;
49614;SDS011;35517;45.272;9.984;2023-05-07T09:46:08;4.13;;;1.13;;
49614;SDS011;35517;45.272;9.984;2023-05-07T09:48:38;3.90;;;1.60;;
49614;SDS011;35517;45.272;9.984;2023-05-07T09:51:11;1.88;;;1.30;;
49614;SDS011;35517;45.272;9.984;2023-05-07T09:53:42;3.80;;;1.10;;
49614;SDS011;35517;45.272;9.984;2023-05-07T09:56:12;6.22;;;1.80;;
49614;SDS011;35517;45.272;9.984;2023-05-07T09:58:39;3.75;;;1.02;;
49614;SDS011;35517;45.272;9.984;2023-05-07T10:01:07;5.03;;;1.40;;
49614;SDS011;35517;45.272;9.984;2023-05-07T10:03:36;3.80;;;1.25;;
49614;SDS011;35517;45.272;9.984;2023-05-07T10:06:04;2.67;;;1.40;;
49614;SDS011;35517;45.272;9.984;2023-05-07T10:08:32;4.72;;;1.23;;
49614;SDS011;35517;45.272;9.984;2023-05-07T10:11:01;2.55;;;1.30;;
49614;SDS011;35517;45.272;9.984;2023-05-07T10:13:29;1.90;;;1.10;;
49614;SDS011;35517;45.272;9.984;2023-05-07T10:15:57;3.60;;;1.17;;
49614;SDS011;35517;45.272;9.984;2023-05-07T10:18:28;2.55;;;1.02;;
49614;SDS011;35517;45.272;9.984;2023-05-07T10:23:41;6.43;;;1.17;;
49614;SDS011;35517;45.272;9.984;2023-05-07T10:26:11;2.75;;;1.08;;
49614;SDS011;35517;45.272;9.984;2023-05-07T10:28:39;7.00;;;1.48;;
49614;SDS011;35517;45.272;9.984;2023-05-07T10:31:20;2.58;;;1.35;;
49614;SDS011;35517;45.272;9.984;2023-05-07T10:33:48;5.45;;;1.45;;
49614;SDS011;35517;45.272;9.984;2023-05-07T10:36:17;1.83;;;1.13;;
49614;SDS011;35517;45.272;9.984;2023-05-07T10:38:45;1.27;;;0.75;;
49614;SDS011;35517;45.272;9.984;2023-05-07T10:41:12;2.28;;;1.30;;
49614;SDS011;35517;45.272;9.984;2023-05-07T10:43:43;1.63;;;0.75;;
49614;SDS011;35517;45.272;9.984;2023-05-07T10:46:17;1.25;;;0.65;;
49614;SDS011;35517;45.272;9.984;2023-05-07T10:51:38;5.38;;;0.95;;
49614;SDS011;35517;45.272;9.984;2023-05-07T10:54:19;1.58;;;0.80;;
49614;SDS011;35517;45.272;9.984;2023-05-07T10:56:54;1.77;;;1.20;;
49614;SDS011;35517;45.272;9.984;2023-05-07T10:59:32;2.90;;;1.35;;
49614;SDS011;35517;45.272;9.984;2023-05-07T11:02:08;1.13;;;0.82;;
49614;SDS011;35517;45.272;9.984;2023-05-07T11:07:40;6.85;;;0.90;;
49614;SDS011;35517;45.272;9.984;2023-05-07T11:10:20;5.25;;;1.73;;
49614;SDS011;35517;45.272;9.984;2023-05-07T11:12:59;1.17;;;0.85;;
49614;SDS011;35517;45.272;9.984;2023-05-07T11:15:47;2.55;;;0.70;;
49614;SDS011;35517;45.272;9.984;2023-05-07T11:20:53;2.47;;;0.68;;
49614;SDS011;35517;45.272;9.984;2023-05-07T11:26:25;3.67;;;1.00;;
49614;SDS011;35517;45.272;9.984;2023-05-07T11:28:52;3.35;;;1.65;;
49614;SDS011;35517;45.272;9.984;2023-05-07T11:31:21;2.92;;;1.00;;
49614;SDS011;35517;45.272;9.984;2023-05-07T11:33:49;5.13;;;1.00;;
49614;SDS011;35517;45.272;9.984;2023-05-07T11:36:19;1.45;;;0.70;;
49614;SDS011;35517;45.272;9.984;2023-05-07T11:38:48;3.80;;;0.68;;
49614;SDS011;35517;45.272;9.984;2023-05-07T11:41:15;3.17;;;0.82;;
49614;SDS011;35517;45.272;9.984;2023-05-07T11:43:55;2.25;;;1.08;;
49614;SDS011;35517;45.272;9.984;2023-05-07T11:46:22;2.97;;;1.10;;
49614;SDS011;35517;45.272;9.984;2023-05-07T11:48:49;5.85;;;1.67;;
49614;SDS011;35517;45.272;9.984;2023-05-07T11:51:19;5.55;;;1.20;;
49614;SDS011;35517;45.272;9.984;2023-05-07T11:53:46;4.43;;;0.93;;
49614;SDS011;35517;45.272;9.984;2023-05-07T11:56:13;4.35;;;1.92;;
49614;SDS011;35517;45.272;9.984;2023-05-07T11:58:40;1.27;;;0.60;;
49614;SDS011;35517;45.272;9.984;2023-05-07T12:01:07;1.48;;;0.85;;
49614;SDS011;35517;45.272;9.984;2023-05-07T12:03:35;3.47;;;0.98;;
49614;SDS011;35517;45.272;9.984;2023-05-07T12:06:04;3.28;;;1.25;;
49614;SDS011;35517;45.272;9.984;2023-05-07T12:08:32;2.83;;;1.20;;
49614;SDS011;35517;45.272;9.984;2023-05-07T12:10:58;3.65;;;1.27;;
49614;SDS011;35517;45.272;9.984;2023-05-07T12:13:25;2.72;;;1.52;;
49614;SDS011;35517;45.272;9.984;2023-05-07T12:15:55;2.35;;;1.58;;
49614;SDS011;35517;45.272;9.984;2023-05-07T12:18:22;3.08;;;1.52;;
49614;SDS011;35517;45.272;9.984;2023-05-07T12:20:49;4.15;;;1.65;;
49614;SDS011;35517;45.272;9.984;2023-05-07T12:23:16;3.58;;;1.50;;
49614;SDS011;35517;45.272;9.984;2023-05-07T12:25:43;3.05;;;1.55;;
49614;SDS011;35517;45.272;9.984;2023-05-07T12:28:13;2.35;;;1.33;;
49614;SDS011;35517;45.272;9.984;2023-05-07T12:30:43;2.85;;;1.52;;
49614;SDS011;35517;45.272;9.984;2023-05-07T12:33:10;2.90;;;1.10;;
49614;SDS011;35517;45.272;9.984;2023-05-07T12:35:41;1.85;;;1.35;;
49614;SDS011;35517;45.272;9.984;2023-05-07T12:38:08;2.53;;;0.98;;
49614;SDS011;35517;45.272;9.984;2023-05-07T12:40:35;3.00;;;1.73;;
49614;SDS011;35517;45.272;9.984;2023-05-07T12:43:02;3.05;;;1.35;;
49614;SDS011;35517;45.272;9.984;2023-05-07T12:45:28;1.75;;;1.23;;
49614;SDS011;35517;45.272;9.984;2023-05-07T12:47:55;4.50;;;1.55;;
49614;SDS011;35517;45.272;9.984;2023-05-07T12:50:22;3.50;;;2.15;;
49614;SDS011;35517;45.272;9.984;2023-05-07T12:52:49;3.55;;;1.85;;
49614;SDS011;35517;45.272;9.984;2023-05-07T12:55:16;3.22;;;2.35;;
49614;SDS011;35517;45.272;9.984;2023-05-07T12:57:43;6.05;;;2.08;;
49614;SDS011;35517;45.272;9.984;2023-05-07T13:00:11;2.15;;;1.73;;
49614;SDS011;35517;45.272;9.984;2023-05-07T13:02:38;5.85;;;2.28;;
49614;SDS011;35517;45.272;9.984;2023-05-07T13:05:05;3.42;;;2.13;;
49614;SDS011;35517;45.272;9.984;2023-05-07T13:07:32;6.65;;;1.92;;
49614;SDS011;35517;45.272;9.984;2023-05-07T13:09:59;3.28;;;1.40;;
49614;SDS011;35517;45.272;9.984;2023-05-07T13:12:25;1.88;;;1.75;;
49614;SDS011;35517;45.272;9.984;2023-05-07T13:14:52;5.40;;;2.28;;
49614;SDS011;35517;45.272;9.984;2023-05-07T13:17:18;4.07;;;2.10;;
49614;SDS011;35517;45.272;9.984;2023-05-07T13:19:45;5.70;;;1.80;;
49614;SDS011;35517;45.272;9.984;2023-05-07T13:22:11;3.53;;;1.33;;
49614;SDS011;35517;45.272;9.984;2023-05-07T13:24:38;3.35;;;1.67;;
49614;SDS011;35517;45.272;9.984;2023-05-07T13:27:07;1.67;;;1.40;;
49614;SDS011;35517;45.272;9.984;2023-05-07T13:29:34;4.15;;;2.25;;
49614;SDS011;35517;45.272;9.984;2023-05-07T13:32:01;4.35;;;2.08;;
49614;SDS011;35517;45.272;9.984;2023-05-07T13:34:28;5.05;;;1.95;;
49614;SDS011;35517;45.272;9.984;2023-05-07T13:36:54;2.50;;;1.92;;
49614;SDS011;35517;45.272;9.984;2023-05-07T13:39:21;2.30;;;2.10;;
49614;SDS011;35517;45.272;9.984;2023-05-07T13:41:47;2.58;;;2.38;;
49614;SDS011;35517;45.272;9.984;2023-05-07T13:44:13;4.28;;;1.98;;
49614;SDS011;35517;45.272;9.984;2023-05-07T13:46:40;3.45;;;1.52;;
49614;SDS011;35517;45.272;9.984;2023-05-07T13:49:06;2.40;;;1.85;;
49614;SDS011;35517;45.272;9.984;2023-05-07T13:51:33;6.00;;;2.35;;
49614;SDS011;35517;45.272;9.984;2023-05-07T13:54:00;2.65;;;1.48;;
49614;SDS011;35517;45.272;9.984;2023-05-07T13:56:26;3.92;;;1.33;;
49614;SDS011;35517;45.272;9.984;2023-05-07T13:58:53;11.02;;;1.88;;
49614;SDS011;35517;45.272;9.984;2023-05-07T14:01:20;1.73;;;1.30;;
49614;SDS011;35517;45.272;9.984;2023-05-07T14:03:47;2.95;;;1.33;;
49614;SDS011;35517;45.272;9.984;2023-05-07T14:06:13;1.75;;;1.20;;
49614;SDS011;35517;45.272;9.984;2023-05-07T14:08:40;3.67;;;1.00;;
49614;SDS011;35517;45.272;9.984;2023-05-07T14:11:06;3.72;;;1.30;;
49614;SDS011;35517;45.272;9.984;2023-05-07T14:13:33;2.80;;;1.50;;
49614;SDS011;35517;45.272;9.984;2023-05-07T14:15:59;8.38;;;1.40;;
49614;SDS011;35517;45.272;9.984;2023-05-07T14:18:26;2.15;;;1.40;;
49614;SDS011;35517;45.272;9.984;2023-05-07T14:20:54;7.93;;;1.60;;
49614;SDS011;35517;45.272;9.984;2023-05-07T14:23:21;1.98;;;1.10;;
49614;SDS011;35517;45.272;9.984;2023-05-07T14:25:52;6.88;;;1.20;;
49614;SDS011;35517;45.272;9.984;2023-05-07T14:28:19;4.82;;;1.67;;
49614;SDS011;35517;45.272;9.984;2023-05-07T14:30:46;3.72;;;1.48;;
49614;SDS011;35517;45.272;9.984;2023-05-07T14:33:13;1.20;;;1.10;;
49614;SDS011;35517;45.272;9.984;2023-05-07T14:35:39;3.40;;;1.25;;
49614;SDS011;35517;45.272;9.984;2023-05-07T14:38:06;3.33;;;1.80;;
49614;SDS011;35517;45.272;9.984;2023-05-07T14:40:33;4.20;;;1.42;;
49614;SDS011;35517;45.272;9.984;2023-05-07T14:42:59;4.45;;;2.17;;
49614;SDS011;35517;45.272;9.984;2023-05-07T14:45:26;2.90;;;1.75;;
49614;SDS011;35517;45.272;9.984;2023-05-07T14:47:52;4.22;;;1.70;;
49614;SDS011;35517;45.272;9.984;2023-05-07T14:50:19;5.38;;;1.67;;
49614;SDS011;35517;45.272;9.984;2023-05-07T14:52:45;4.18;;;1.83;;
49614;SDS011;35517;45.272;9.984;2023-05-07T14:55:12;2.25;;;1.10;;
49614;SDS011;35517;45.272;9.984;2023-05-07T14:57:38;3.78;;;1.88;;
49614;SDS011;35517;45.272;9.984;2023-05-07T15:00:06;3.17;;;1.40;;